KPAH

Barkley Regional Airport

Paducah, Kentucky, USA
METAR KPAH 190653Z AUTO 22007KT 10SM CLR M05/M12 A3026 RMK AO2 SLP251 T10501117
Observed Flight Rules
Jan-19 @ 06:53 UTC (34 minutes ago) Visual Flight Rules
Wind Visibility Clouds
220° at 7 knots 10 miles
  • Clear skies
Temperatures Readings
Current -5°C / 23°F
Dewpoint -12°C / 10°F
Humidity 58%
Altimeter 30.26" Hg
Pressure 1025.1 hPa
Elevation 119
METAR KPAH 190653Z AUTO 22007KT 10SM CLR M05/M12 A3026 RMK AO2 SLP251 T10501117
Observed Flight Rules
Jan-19 @ 06:53 UTC
(34 minutes ago)
VFR
Wind Visibility
220° at 7 knots 10 miles
Clouds
  • Clear skies
Temperature Dewpoint
-5°C / 23°F -12°C / 10°F
Humidity Altimeter Pressure
58% 30.26" Hg 1025.1 hPa